createdAt,value
2023-02-27T00:00:21.383Z,102162.00
2023-02-27T00:02:51.336Z,102168.00
2023-02-27T00:05:19.425Z,102156.00
2023-02-27T00:07:46.427Z,102161.00
2023-02-27T00:10:14.304Z,102150.00
2023-02-27T00:12:41.892Z,102158.00
2023-02-27T00:15:18.751Z,102156.00
2023-02-27T00:17:46.008Z,102162.00
2023-02-27T00:20:16.811Z,102159.00
2023-02-27T00:22:44.958Z,102160.00
2023-02-27T00:25:13.126Z,102155.00
2023-02-27T00:27:41.036Z,102154.00
2023-02-27T00:30:13.420Z,102150.00
2023-02-27T00:32:40.714Z,102154.00
2023-02-27T00:35:10.973Z,102167.00
2023-02-27T00:37:38.080Z,102165.00
2023-02-27T00:40:06.146Z,102165.00
2023-02-27T00:42:33.537Z,102158.00
2023-02-27T00:45:00.365Z,102158.00
2023-02-27T00:47:27.096Z,102165.00
2023-02-27T00:49:53.848Z,102152.00
2023-02-27T00:52:20.903Z,102157.00
2023-02-27T00:54:47.626Z,102157.00
2023-02-27T00:57:14.689Z,102155.00
2023-02-27T00:59:41.492Z,102160.00
2023-02-27T01:02:08.211Z,102149.00
2023-02-27T01:04:35.281Z,102148.00
2023-02-27T01:07:03.430Z,102161.00
2023-02-27T01:09:30.148Z,102144.00
2023-02-27T01:11:57.577Z,102146.00
2023-02-27T01:14:24.719Z,102151.00
2023-02-27T01:16:51.480Z,102150.00
2023-02-27T01:19:18.477Z,102144.00
2023-02-27T01:21:45.599Z,102150.00
2023-02-27T01:24:13.183Z,102143.00
2023-02-27T01:26:40.140Z,102143.00
2023-02-27T01:29:07.038Z,102140.00
2023-02-27T01:31:34.293Z,102142.00
2023-02-27T01:34:01.094Z,102136.00
2023-02-27T01:36:28.114Z,102142.00
2023-02-27T01:38:54.847Z,102149.00
2023-02-27T01:41:21.589Z,102136.00
2023-02-27T01:44:07.361Z,102143.00
2023-02-27T01:46:35.385Z,102138.00
2023-02-27T01:49:34.384Z,102142.00
2023-02-27T01:52:06.679Z,102133.00
2023-02-27T01:54:40.580Z,102139.00
2023-02-27T01:57:09.675Z,102137.00
2023-02-27T01:59:40.654Z,102133.00
2023-02-27T02:02:18.505Z,102137.00
2023-02-27T02:04:46.349Z,102139.00
2023-02-27T02:07:19.112Z,102147.00
2023-02-27T02:09:51.510Z,102151.00
2023-02-27T02:12:24.215Z,102155.00
2023-02-27T02:14:51.724Z,102136.00
2023-02-27T02:17:30.061Z,102142.00
2023-02-27T02:20:28.270Z,102146.00
2023-02-27T02:23:22.012Z,102139.00
2023-02-27T02:26:24.875Z,102141.00
2023-02-27T02:29:45.155Z,102142.00
2023-02-27T02:32:26.246Z,102144.00
2023-02-27T02:35:33.051Z,102160.00
2023-02-27T02:38:05.984Z,102158.00
2023-02-27T02:40:42.761Z,102161.00
2023-02-27T02:43:40.798Z,102174.00
2023-02-27T02:46:18.773Z,102160.00
2023-02-27T02:48:56.106Z,102169.00
2023-02-27T02:51:35.547Z,102162.00
2023-02-27T02:54:21.827Z,102172.00
2023-02-27T02:57:00.326Z,102165.00
2023-02-27T02:59:38.686Z,102167.00
2023-02-27T03:02:16.327Z,102170.00
2023-02-27T03:04:54.859Z,102176.00
2023-02-27T03:07:33.541Z,102168.00
2023-02-27T03:10:11.588Z,102172.00
2023-02-27T03:12:45.267Z,102172.00
2023-02-27T03:15:36.686Z,102178.00
2023-02-27T03:18:10.320Z,102181.00
2023-02-27T03:20:45.682Z,102188.00
2023-02-27T03:23:21.652Z,102186.00
2023-02-27T03:25:51.225Z,102186.00
2023-02-27T03:28:27.664Z,102188.00
2023-02-27T03:31:22.593Z,102189.00
2023-02-27T03:34:02.407Z,102183.00
2023-02-27T03:36:49.921Z,102191.00
2023-02-27T03:39:27.443Z,102195.00
2023-02-27T03:42:47.299Z,102195.00
2023-02-27T03:45:38.658Z,102198.00
2023-02-27T03:48:07.745Z,102202.00
2023-02-27T03:50:36.784Z,102203.00
2023-02-27T03:53:21.476Z,102200.00
2023-02-27T03:55:51.445Z,102211.00
2023-02-27T03:58:18.321Z,102208.00
2023-02-27T04:00:45.670Z,102204.00
2023-02-27T04:03:12.990Z,102214.00
2023-02-27T04:05:39.862Z,102206.00
2023-02-27T04:08:32.152Z,102205.00
2023-02-27T04:11:37.284Z,102218.00
2023-02-27T04:14:40.240Z,102219.00
2023-02-27T04:17:23.797Z,102221.00
2023-02-27T04:20:27.012Z,102223.00
2023-02-27T04:23:07.024Z,102231.00
2023-02-27T04:25:50.023Z,102221.00
2023-02-27T04:28:39.899Z,102225.00
2023-02-27T04:31:38.818Z,102227.00
2023-02-27T04:34:24.613Z,102222.00
2023-02-27T04:37:11.617Z,102225.00
2023-02-27T04:40:02.390Z,102231.00
2023-02-27T04:42:38.777Z,102227.00
2023-02-27T04:45:15.120Z,102230.00
2023-02-27T04:47:56.042Z,102228.00
2023-02-27T04:50:35.402Z,102230.00
2023-02-27T04:53:19.508Z,102231.00
2023-02-27T04:55:57.055Z,102227.00
2023-02-27T04:58:32.300Z,102224.00
2023-02-27T05:01:06.572Z,102229.00
2023-02-27T05:03:46.892Z,102225.00
2023-02-27T05:06:18.947Z,102219.00
2023-02-27T05:09:03.204Z,102228.00
2023-02-27T05:11:56.677Z,102245.00
2023-02-27T05:14:36.706Z,102232.00
2023-02-27T05:17:11.765Z,102239.00
2023-02-27T05:19:42.536Z,102234.00
2023-02-27T05:22:41.031Z,102240.00
2023-02-27T05:25:26.936Z,102242.00
2023-02-27T05:28:22.370Z,102234.00
2023-02-27T05:31:03.461Z,102232.00
2023-02-27T05:33:48.555Z,102242.00
2023-02-27T05:36:30.538Z,102251.00
2023-02-27T05:39:05.533Z,102249.00
2023-02-27T05:41:43.191Z,102251.00
2023-02-27T05:44:17.279Z,102254.00
2023-02-27T05:46:53.441Z,102258.00
2023-02-27T05:49:45.457Z,102259.00
2023-02-27T05:52:18.698Z,102253.00
2023-02-27T05:54:59.161Z,102252.00
2023-02-27T05:57:37.380Z,102262.00
2023-02-27T06:00:28.137Z,102270.00
2023-02-27T06:02:55.437Z,102270.00
2023-02-27T06:05:24.784Z,102267.00
2023-02-27T06:07:51.914Z,102276.00
2023-02-27T06:10:21.096Z,102272.00
2023-02-27T06:12:48.427Z,102285.00
2023-02-27T06:15:17.363Z,102290.00
2023-02-27T06:17:44.120Z,102289.00
2023-02-27T06:20:12.136Z,102300.00
2023-02-27T06:22:38.859Z,102295.00
2023-02-27T06:25:06.494Z,102297.00
2023-02-27T06:27:33.286Z,102294.00
2023-02-27T06:30:00.017Z,102292.00
2023-02-27T06:32:26.839Z,102289.00
2023-02-27T06:34:53.584Z,102301.00
2023-02-27T06:37:21.939Z,102301.00
2023-02-27T06:39:48.718Z,102303.00
2023-02-27T06:42:16.040Z,102301.00
2023-02-27T06:44:42.874Z,102310.00
2023-02-27T06:47:09.723Z,102316.00
2023-02-27T06:49:36.612Z,102316.00
2023-02-27T06:52:03.355Z,102324.00
2023-02-27T06:54:30.137Z,102321.00
2023-02-27T06:56:57.169Z,102316.00
2023-02-27T06:59:23.884Z,102329.00
2023-02-27T07:01:50.715Z,102327.00
2023-02-27T07:04:17.873Z,102328.00
2023-02-27T07:07:35.759Z,102338.00
2023-02-27T07:09:31.803Z,102352.00
2023-02-27T07:11:58.585Z,102353.00
2023-02-27T07:14:25.724Z,102360.00
2023-02-27T07:16:55.268Z,102365.00
2023-02-27T07:19:24.773Z,102364.00
2023-02-27T07:21:51.662Z,102356.00
2023-02-27T07:24:18.985Z,102367.00
2023-02-27T07:26:45.778Z,102364.00
2023-02-27T07:29:14.729Z,102383.00
2023-02-27T07:31:41.872Z,102377.00
2023-02-27T07:34:11.678Z,102381.00
2023-02-27T07:36:39.234Z,102382.00
2023-02-27T07:39:08.681Z,102376.00
2023-02-27T07:41:35.425Z,102375.00
2023-02-27T07:44:02.338Z,102376.00
2023-02-27T07:46:29.389Z,102376.00
2023-02-27T07:48:56.353Z,102364.00
2023-02-27T07:51:23.329Z,102366.00
2023-02-27T07:53:50.072Z,102374.00
2023-02-27T07:56:16.844Z,102378.00
2023-02-27T07:58:43.609Z,102396.00
2023-02-27T08:01:10.382Z,102395.00
2023-02-27T08:03:37.095Z,102394.00
2023-02-27T08:06:03.902Z,102397.00
2023-02-27T08:08:30.673Z,102387.00
2023-02-27T08:10:57.553Z,102394.00
2023-02-27T08:13:55.747Z,102393.00
2023-02-27T08:16:11.702Z,102391.00
2023-02-27T08:18:38.858Z,102404.00
2023-02-27T08:21:06.063Z,102395.00
2023-02-27T08:23:34.926Z,102393.00
2023-02-27T08:26:03.220Z,102395.00
2023-02-27T08:28:30.223Z,102399.00
2023-02-27T08:30:57.110Z,102405.00
2023-02-27T08:33:24.513Z,102403.00
2023-02-27T08:35:51.621Z,102404.00
2023-02-27T08:38:18.524Z,102410.00
2023-02-27T08:40:45.352Z,102406.00
2023-02-27T08:43:12.108Z,102406.00
2023-02-27T08:45:38.884Z,102397.00
2023-02-27T08:48:05.897Z,102407.00
2023-02-27T08:50:32.606Z,102404.00
2023-02-27T08:52:59.380Z,102400.00
2023-02-27T08:55:26.523Z,102401.00
2023-02-27T08:57:53.279Z,102406.00
2023-02-27T09:00:20.876Z,102411.00
2023-02-27T09:02:47.904Z,102404.00
2023-02-27T09:05:14.784Z,102414.00
2023-02-27T09:07:42.060Z,102409.00
2023-02-27T09:10:10.079Z,102401.00
2023-02-27T09:12:37.502Z,102398.00
2023-02-27T09:15:05.983Z,102401.00
2023-02-27T09:17:33.146Z,102407.00
2023-02-27T09:20:00.424Z,102411.00
2023-02-27T09:22:27.228Z,102411.00
2023-02-27T09:24:54.004Z,102408.00
2023-02-27T09:27:20.738Z,102409.00
2023-02-27T09:29:49.496Z,102409.00
2023-02-27T09:32:16.258Z,102422.00
2023-02-27T09:34:43.051Z,102423.00
2023-02-27T09:37:09.789Z,102423.00
2023-02-27T09:39:36.525Z,102421.00
2023-02-27T09:42:23.252Z,102426.00
2023-02-27T09:44:55.798Z,102421.00
2023-02-27T09:47:33.586Z,102422.00
2023-02-27T09:50:06.588Z,102419.00
2023-02-27T09:52:37.333Z,102418.00
2023-02-27T09:55:18.989Z,102427.00
2023-02-27T09:57:58.980Z,102431.00
2023-02-27T10:01:18.609Z,102440.00
2023-02-27T10:04:11.090Z,102439.00
2023-02-27T10:06:51.968Z,102450.00
2023-02-27T10:09:50.927Z,102438.00
2023-02-27T10:12:50.725Z,102452.00
2023-02-27T10:15:40.587Z,102448.00
2023-02-27T10:18:27.625Z,102447.00
2023-02-27T10:21:00.216Z,102447.00
2023-02-27T10:23:41.288Z,102446.00
2023-02-27T10:26:22.656Z,102450.00
2023-02-27T10:28:50.004Z,102453.00
2023-02-27T10:31:25.454Z,102457.00
2023-02-27T10:33:53.510Z,102448.00
2023-02-27T10:36:32.994Z,102439.00
2023-02-27T10:39:07.289Z,102450.00
2023-02-27T10:41:36.335Z,102446.00
2023-02-27T10:44:03.951Z,102453.00
2023-02-27T10:46:36.526Z,102460.00
2023-02-27T10:49:14.656Z,102459.00
2023-02-27T10:51:44.394Z,102467.00
2023-02-27T10:54:26.442Z,102473.00
2023-02-27T10:57:00.694Z,102462.00
2023-02-27T10:59:40.409Z,102463.00
2023-02-27T11:02:16.286Z,102460.00
2023-02-27T11:04:53.797Z,102459.00
2023-02-27T11:07:53.338Z,102461.00
2023-02-27T11:10:27.584Z,102468.00
2023-02-27T11:13:21.655Z,102458.00
2023-02-27T11:16:23.033Z,102454.00
2023-02-27T11:18:54.301Z,102460.00
2023-02-27T11:21:27.005Z,102442.00
2023-02-27T11:24:04.283Z,102449.00
2023-02-27T11:26:36.870Z,102442.00
2023-02-27T11:29:18.302Z,102439.00
2023-02-27T11:31:57.217Z,102447.00
2023-02-27T11:34:40.841Z,102447.00
2023-02-27T11:37:24.002Z,102447.00
2023-02-27T11:40:02.302Z,102452.00
2023-02-27T11:42:33.886Z,102453.00
2023-02-27T11:46:12.931Z,102449.00
2023-02-27T11:48:31.556Z,102449.00
2023-02-27T11:51:26.346Z,102447.00
2023-02-27T11:54:32.318Z,102441.00
2023-02-27T11:57:10.068Z,102456.00
2023-02-27T11:59:53.316Z,102451.00
2023-02-27T12:02:41.805Z,102437.00
2023-02-27T12:05:21.382Z,102450.00
2023-02-27T12:08:07.650Z,102446.00
2023-02-27T12:11:13.146Z,102445.00
2023-02-27T12:13:47.304Z,102439.00
2023-02-27T12:16:44.656Z,102439.00
2023-02-27T12:19:33.499Z,102439.00
2023-02-27T12:22:17.427Z,102440.00
2023-02-27T12:25:13.673Z,102434.00
2023-02-27T12:27:54.347Z,102434.00
2023-02-27T12:30:41.485Z,102433.00
2023-02-27T12:33:32.216Z,102436.00
2023-02-27T12:36:03.797Z,102431.00
2023-02-27T12:38:31.171Z,102441.00
2023-02-27T12:41:24.175Z,102437.00
2023-02-27T12:44:24.401Z,102439.00
2023-02-27T12:47:12.092Z,102449.00
2023-02-27T12:49:59.014Z,102442.00
2023-02-27T12:52:42.788Z,102449.00
2023-02-27T12:55:28.646Z,102446.00
2023-02-27T12:58:22.914Z,102437.00
2023-02-27T13:01:18.306Z,102443.00
2023-02-27T13:04:02.228Z,102440.00
2023-02-27T13:07:00.373Z,102443.00
2023-02-27T13:09:52.023Z,102444.00
2023-02-27T13:12:40.824Z,102436.00
2023-02-27T13:15:34.462Z,102440.00
2023-02-27T13:18:13.516Z,102446.00
2023-02-27T13:20:56.623Z,102443.00
2023-02-27T13:23:35.303Z,102441.00
2023-02-27T13:26:18.735Z,102440.00
2023-02-27T13:28:46.395Z,102428.00
2023-02-27T13:31:34.776Z,102435.00
2023-02-27T13:34:29.529Z,102431.00
2023-02-27T13:37:03.582Z,102435.00
2023-02-27T13:39:45.915Z,102436.00
2023-02-27T13:42:28.042Z,102432.00
2023-02-27T13:45:02.423Z,102422.00
2023-02-27T13:47:49.927Z,102436.00
2023-02-27T13:50:21.238Z,102438.00
2023-02-27T13:52:48.658Z,102436.00
2023-02-27T13:55:36.984Z,102434.00
2023-02-27T13:58:06.122Z,102430.00
2023-02-27T14:00:37.787Z,102437.00
2023-02-27T14:03:25.742Z,102436.00
2023-02-27T14:05:57.439Z,102438.00
2023-02-27T14:08:48.898Z,102442.00
2023-02-27T14:11:24.302Z,102432.00
2023-02-27T14:13:51.080Z,102427.00
2023-02-27T14:16:44.155Z,102429.00
2023-02-27T14:19:19.734Z,102436.00
2023-02-27T14:22:01.019Z,102436.00
2023-02-27T14:24:49.677Z,102446.00
2023-02-27T14:27:29.305Z,102448.00
2023-02-27T14:30:02.656Z,102456.00
2023-02-27T14:32:39.047Z,102456.00
2023-02-27T14:35:07.539Z,102464.00
2023-02-27T14:37:36.397Z,102459.00
2023-02-27T14:40:06.300Z,102457.00
2023-02-27T14:43:10.741Z,102476.00
2023-02-27T14:45:37.683Z,102469.00
2023-02-27T14:48:10.204Z,102465.00
2023-02-27T14:50:42.197Z,102459.00
2023-02-27T14:53:25.071Z,102464.00
2023-02-27T14:55:59.479Z,102465.00
2023-02-27T14:58:27.300Z,102470.00
2023-02-27T15:01:04.904Z,102479.00
2023-02-27T15:03:52.784Z,102474.00
2023-02-27T15:06:44.222Z,102471.00
2023-02-27T15:09:24.439Z,102477.00
2023-02-27T15:12:03.990Z,102484.00
2023-02-27T15:14:37.453Z,102481.00
2023-02-27T15:17:21.852Z,102479.00
2023-02-27T15:19:53.806Z,102481.00
2023-02-27T15:22:38.913Z,102476.00
2023-02-27T15:25:08.003Z,102478.00
2023-02-27T15:27:37.634Z,102479.00
2023-02-27T15:30:05.761Z,102477.00
2023-02-27T15:32:43.251Z,102475.00
2023-02-27T15:35:32.001Z,102476.00
2023-02-27T15:38:00.334Z,102476.00
2023-02-27T15:40:30.785Z,102485.00
2023-02-27T15:43:00.127Z,102482.00
2023-02-27T15:45:35.811Z,102485.00
2023-02-27T15:48:03.947Z,102471.00
2023-02-27T15:50:37.922Z,102487.00
2023-02-27T15:53:07.549Z,102491.00
2023-02-27T15:55:39.503Z,102501.00
2023-02-27T15:58:29.257Z,102497.00
2023-02-27T16:01:07.213Z,102500.00
2023-02-27T16:03:47.968Z,102505.00
2023-02-27T16:06:33.205Z,102495.00
2023-02-27T16:09:21.625Z,102508.00
2023-02-27T16:11:49.411Z,102504.00
2023-02-27T16:14:45.118Z,102513.00
2023-02-27T16:17:31.664Z,102500.00
2023-02-27T16:20:02.641Z,102502.00
2023-02-27T16:22:30.523Z,102504.00
2023-02-27T16:25:18.388Z,102499.00
2023-02-27T16:27:50.330Z,102502.00
2023-02-27T16:30:17.256Z,102507.00
2023-02-27T16:32:44.445Z,102506.00
2023-02-27T16:35:21.563Z,102526.00
2023-02-27T16:37:50.512Z,102519.00
2023-02-27T16:40:23.057Z,102521.00
2023-02-27T16:42:51.930Z,102520.00
2023-02-27T16:45:22.888Z,102524.00
2023-02-27T16:47:53.432Z,102523.00
2023-02-27T16:50:35.621Z,102526.00
2023-02-27T16:53:02.671Z,102521.00
2023-02-27T16:55:31.490Z,102521.00
2023-02-27T16:57:59.262Z,102518.00
2023-02-27T17:00:26.050Z,102530.00
2023-02-27T17:02:52.819Z,102523.00
2023-02-27T17:05:19.945Z,102532.00
2023-02-27T17:07:46.776Z,102525.00
2023-02-27T17:10:22.124Z,102538.00
2023-02-27T17:12:48.989Z,102534.00
2023-02-27T17:15:16.999Z,102524.00
2023-02-27T17:17:45.208Z,102534.00
2023-02-27T17:20:14.058Z,102532.00
2023-02-27T17:22:44.473Z,102533.00
2023-02-27T17:25:12.693Z,102535.00
2023-02-27T17:27:42.410Z,102548.00
2023-02-27T17:30:11.831Z,102538.00
2023-02-27T17:32:38.785Z,102531.00
2023-02-27T17:35:06.105Z,102537.00
2023-02-27T17:37:32.987Z,102536.00
2023-02-27T17:39:59.792Z,102541.00
2023-02-27T17:42:26.638Z,102543.00
2023-02-27T17:44:53.502Z,102544.00
2023-02-27T17:47:20.532Z,102548.00
2023-02-27T17:49:48.229Z,102552.00
2023-02-27T17:52:15.726Z,102549.00
2023-02-27T17:54:42.486Z,102537.00
2023-02-27T17:57:10.496Z,102546.00
2023-02-27T17:59:37.553Z,102546.00
2023-02-27T18:02:04.332Z,102536.00
2023-02-27T18:04:32.119Z,102547.00
2023-02-27T18:06:58.928Z,102539.00
2023-02-27T18:09:25.670Z,102542.00
2023-02-27T18:11:52.439Z,102549.00
2023-02-27T18:14:19.197Z,102543.00
2023-02-27T18:16:45.964Z,102538.00
2023-02-27T18:19:13.921Z,102541.00
2023-02-27T18:21:42.572Z,102549.00
2023-02-27T18:24:09.670Z,102546.00
2023-02-27T18:26:36.684Z,102557.00
2023-02-27T18:29:07.754Z,102546.00
2023-02-27T18:31:40.238Z,102549.00
2023-02-27T18:34:07.765Z,102558.00
2023-02-27T18:36:35.649Z,102564.00
2023-02-27T18:39:04.974Z,102564.00
2023-02-27T18:41:32.259Z,102570.00
2023-02-27T18:43:59.151Z,102560.00
2023-02-27T18:46:26.215Z,102563.00
2023-02-27T18:48:53.275Z,102561.00
2023-02-27T18:51:20.455Z,102561.00
2023-02-27T18:53:51.008Z,102565.00
2023-02-27T18:56:22.848Z,102569.00
2023-02-27T18:58:51.526Z,102567.00
2023-02-27T19:01:30.629Z,102568.00
2023-02-27T19:04:03.636Z,102567.00
2023-02-27T19:06:40.909Z,102577.00
2023-02-27T19:09:11.883Z,102581.00
2023-02-27T19:11:39.313Z,102574.00
2023-02-27T19:14:10.729Z,102582.00
2023-02-27T19:16:37.681Z,102577.00
2023-02-27T19:19:05.555Z,102585.00
2023-02-27T19:21:33.660Z,102581.00
2023-02-27T19:24:01.741Z,102577.00
2023-02-27T19:26:29.673Z,102573.00
2023-02-27T19:28:56.654Z,102588.00
2023-02-27T19:31:25.291Z,102574.00
2023-02-27T19:33:52.563Z,102575.00
2023-02-27T19:36:22.554Z,102583.00
2023-02-27T19:38:50.171Z,102581.00
2023-02-27T19:41:18.421Z,102583.00
2023-02-27T19:43:46.842Z,102586.00
2023-02-27T19:46:24.525Z,102587.00
2023-02-27T19:48:53.411Z,102588.00
2023-02-27T19:51:21.266Z,102590.00
2023-02-27T19:53:48.707Z,102587.00
2023-02-27T19:56:25.034Z,102579.00
2023-02-27T19:58:54.476Z,102574.00
2023-02-27T20:01:34.249Z,102581.00
2023-02-27T20:04:02.453Z,102582.00
2023-02-27T20:06:33.498Z,102586.00
2023-02-27T20:09:00.806Z,102591.00
2023-02-27T20:11:31.608Z,102586.00
2023-02-27T20:13:59.112Z,102584.00
2023-02-27T20:16:29.044Z,102579.00
2023-02-27T20:18:57.059Z,102588.00
2023-02-27T20:21:26.876Z,102591.00
2023-02-27T20:23:54.982Z,102587.00
2023-02-27T20:26:26.283Z,102601.00
2023-02-27T20:28:56.415Z,102588.00
2023-02-27T20:31:28.258Z,102593.00
2023-02-27T20:33:57.339Z,102594.00
2023-02-27T20:36:24.357Z,102586.00
2023-02-27T20:38:51.725Z,102591.00
2023-02-27T20:41:23.055Z,102590.00
2023-02-27T20:43:50.188Z,102582.00
2023-02-27T20:46:29.053Z,102583.00
2023-02-27T20:49:02.269Z,102597.00
2023-02-27T20:51:35.923Z,102593.00
2023-02-27T20:54:06.513Z,102599.00
2023-02-27T20:56:38.590Z,102593.00
2023-02-27T20:59:08.539Z,102593.00
2023-02-27T21:01:38.254Z,102596.00
2023-02-27T21:04:05.863Z,102597.00
2023-02-27T21:06:32.814Z,102599.00
2023-02-27T21:09:05.430Z,102594.00
2023-02-27T21:11:33.432Z,102600.00
2023-02-27T21:14:09.196Z,102604.00
2023-02-27T21:16:37.068Z,102608.00
2023-02-27T21:19:04.856Z,102602.00
2023-02-27T21:21:34.521Z,102599.00
2023-02-27T21:24:01.683Z,102608.00
2023-02-27T21:26:35.344Z,102594.00
2023-02-27T21:29:14.416Z,102597.00
2023-02-27T21:31:48.917Z,102598.00
2023-02-27T21:34:27.968Z,102602.00
2023-02-27T21:36:56.303Z,102604.00
2023-02-27T21:39:28.540Z,102599.00
2023-02-27T21:41:55.505Z,102596.00
2023-02-27T21:44:26.347Z,102598.00
2023-02-27T21:46:55.575Z,102599.00
2023-02-27T21:49:27.595Z,102600.00
2023-02-27T21:51:55.349Z,102604.00
2023-02-27T21:54:22.465Z,102598.00
2023-02-27T21:56:49.749Z,102601.00
2023-02-27T21:59:19.085Z,102598.00
2023-02-27T22:01:48.100Z,102602.00
2023-02-27T22:04:17.500Z,102602.00
2023-02-27T22:06:45.625Z,102598.00
2023-02-27T22:09:12.628Z,102599.00
2023-02-27T22:11:40.858Z,102605.00
2023-02-27T22:14:09.198Z,102607.00
2023-02-27T22:16:36.751Z,102601.00
2023-02-27T22:19:08.887Z,102610.00
2023-02-27T22:21:37.377Z,102600.00
2023-02-27T22:24:05.152Z,102605.00
2023-02-27T22:26:32.914Z,102606.00
2023-02-27T22:29:00.246Z,102606.00
2023-02-27T22:31:32.722Z,102608.00
2023-02-27T22:34:05.416Z,102613.00
2023-02-27T22:36:33.727Z,102611.00
2023-02-27T22:39:01.631Z,102620.00
2023-02-27T22:41:32.694Z,102615.00
2023-02-27T22:44:01.841Z,102602.00
2023-02-27T22:46:40.338Z,102609.00
2023-02-27T22:49:18.072Z,102614.00
2023-02-27T22:51:46.640Z,102615.00
2023-02-27T22:54:16.257Z,102616.00
2023-02-27T22:56:43.355Z,102623.00
2023-02-27T22:59:10.730Z,102620.00
2023-02-27T23:01:38.008Z,102628.00
2023-02-27T23:04:09.089Z,102621.00
2023-02-27T23:06:39.922Z,102623.00
2023-02-27T23:09:12.172Z,102619.00
2023-02-27T23:11:39.285Z,102622.00
2023-02-27T23:14:07.778Z,102634.00
2023-02-27T23:16:34.627Z,102638.00
2023-02-27T23:19:02.449Z,102639.00
2023-02-27T23:21:35.857Z,102634.00
2023-02-27T23:24:07.942Z,102641.00
2023-02-27T23:26:40.321Z,102634.00
2023-02-27T23:29:08.348Z,102642.00
2023-02-27T23:31:36.589Z,102648.00
2023-02-27T23:34:05.970Z,102648.00
2023-02-27T23:36:35.062Z,102646.00
2023-02-27T23:39:03.748Z,102643.00
2023-02-27T23:41:31.370Z,102650.00
2023-02-27T23:43:58.355Z,102644.00
2023-02-27T23:46:30.091Z,102649.00
2023-02-27T23:49:01.225Z,102652.00
2023-02-27T23:51:30.592Z,102650.00
2023-02-27T23:53:59.203Z,102655.00
2023-02-27T23:56:30.473Z,102648.00
2023-02-27T23:59:04.712Z,102654.00
